sensor_id;sensor_type;location;lat;lon;timestamp;P1;durP1;ratioP1;P2;durP2;ratioP2
13034;SDS011;6584;48.022;11.810;2023-03-01T00:00:53;19.83;;;15.48;;
13034;SDS011;6584;48.022;11.810;2023-03-01T00:03:19;18.85;;;15.32;;
13034;SDS011;6584;48.022;11.810;2023-03-01T00:05:45;21.25;;;15.65;;
13034;SDS011;6584;48.022;11.810;2023-03-01T00:08:12;20.92;;;15.75;;
13034;SDS011;6584;48.022;11.810;2023-03-01T00:10:38;20.35;;;14.43;;
13034;SDS011;6584;48.022;11.810;2023-03-01T00:13:04;18.60;;;14.98;;
13034;SDS011;6584;48.022;11.810;2023-03-01T00:15:30;19.70;;;14.90;;
13034;SDS011;6584;48.022;11.810;2023-03-01T00:17:56;21.65;;;15.75;;
13034;SDS011;6584;48.022;11.810;2023-03-01T00:20:22;20.80;;;14.98;;
13034;SDS011;6584;48.022;11.810;2023-03-01T00:22:48;21.20;;;15.50;;
13034;SDS011;6584;48.022;11.810;2023-03-01T00:25:14;19.63;;;14.55;;
13034;SDS011;6584;48.022;11.810;2023-03-01T00:27:39;19.95;;;14.48;;
13034;SDS011;6584;48.022;11.810;2023-03-01T00:30:05;20.70;;;15.75;;
13034;SDS011;6584;48.022;11.810;2023-03-01T00:32:31;22.13;;;15.52;;
13034;SDS011;6584;48.022;11.810;2023-03-01T00:34:56;21.20;;;16.17;;
13034;SDS011;6584;48.022;11.810;2023-03-01T00:37:23;20.95;;;15.27;;
13034;SDS011;6584;48.022;11.810;2023-03-01T00:39:49;19.65;;;15.07;;
13034;SDS011;6584;48.022;11.810;2023-03-01T00:42:15;20.55;;;15.55;;
13034;SDS011;6584;48.022;11.810;2023-03-01T00:44:41;19.88;;;15.15;;
13034;SDS011;6584;48.022;11.810;2023-03-01T00:47:07;21.80;;;15.18;;
13034;SDS011;6584;48.022;11.810;2023-03-01T00:49:32;18.40;;;14.55;;
13034;SDS011;6584;48.022;11.810;2023-03-01T00:51:59;19.48;;;14.40;;
13034;SDS011;6584;48.022;11.810;2023-03-01T00:54:24;21.98;;;15.35;;
13034;SDS011;6584;48.022;11.810;2023-03-01T00:56:50;20.17;;;14.57;;
13034;SDS011;6584;48.022;11.810;2023-03-01T00:59:16;20.45;;;14.98;;
13034;SDS011;6584;48.022;11.810;2023-03-01T01:01:41;18.27;;;14.85;;
13034;SDS011;6584;48.022;11.810;2023-03-01T01:04:07;19.73;;;15.15;;
13034;SDS011;6584;48.022;11.810;2023-03-01T01:06:37;20.45;;;15.63;;
13034;SDS011;6584;48.022;11.810;2023-03-01T01:09:11;21.38;;;14.70;;
13034;SDS011;6584;48.022;11.810;2023-03-01T01:11:42;17.90;;;14.15;;
13034;SDS011;6584;48.022;11.810;2023-03-01T01:14:13;22.67;;;15.60;;
13034;SDS011;6584;48.022;11.810;2023-03-01T01:16:39;19.60;;;14.88;;
13034;SDS011;6584;48.022;11.810;2023-03-01T01:19:05;19.38;;;14.65;;
13034;SDS011;6584;48.022;11.810;2023-03-01T01:21:31;20.85;;;15.25;;
13034;SDS011;6584;48.022;11.810;2023-03-01T01:23:57;18.67;;;14.45;;
13034;SDS011;6584;48.022;11.810;2023-03-01T01:26:27;21.52;;;15.82;;
13034;SDS011;6584;48.022;11.810;2023-03-01T01:28:54;20.33;;;15.13;;
13034;SDS011;6584;48.022;11.810;2023-03-01T01:31:20;20.98;;;15.70;;
13034;SDS011;6584;48.022;11.810;2023-03-01T01:33:48;21.05;;;15.32;;
13034;SDS011;6584;48.022;11.810;2023-03-01T01:36:14;20.75;;;15.75;;
13034;SDS011;6584;48.022;11.810;2023-03-01T01:38:40;19.42;;;14.35;;
13034;SDS011;6584;48.022;11.810;2023-03-01T01:41:07;22.45;;;16.17;;
13034;SDS011;6584;48.022;11.810;2023-03-01T01:43:37;19.48;;;14.88;;
13034;SDS011;6584;48.022;11.810;2023-03-01T01:46:16;22.33;;;15.13;;
13034;SDS011;6584;48.022;11.810;2023-03-01T01:48:50;21.27;;;15.32;;
13034;SDS011;6584;48.022;11.810;2023-03-01T01:51:21;18.38;;;14.43;;
13034;SDS011;6584;48.022;11.810;2023-03-01T01:53:53;19.67;;;15.07;;
13034;SDS011;6584;48.022;11.810;2023-03-01T01:56:24;21.25;;;15.48;;
13034;SDS011;6584;48.022;11.810;2023-03-01T01:58:51;20.00;;;15.40;;
13034;SDS011;6584;48.022;11.810;2023-03-01T02:01:17;20.08;;;15.43;;
13034;SDS011;6584;48.022;11.810;2023-03-01T02:03:44;20.88;;;15.23;;
13034;SDS011;6584;48.022;11.810;2023-03-01T02:06:21;20.60;;;14.98;;
13034;SDS011;6584;48.022;11.810;2023-03-01T02:09:05;19.55;;;14.85;;
13034;SDS011;6584;48.022;11.810;2023-03-01T02:11:36;19.88;;;15.20;;
13034;SDS011;6584;48.022;11.810;2023-03-01T02:14:02;19.85;;;14.52;;
13034;SDS011;6584;48.022;11.810;2023-03-01T02:16:28;20.67;;;15.70;;
13034;SDS011;6584;48.022;11.810;2023-03-01T02:18:55;19.38;;;15.07;;
13034;SDS011;6584;48.022;11.810;2023-03-01T02:24:07;23.08;;;14.68;;
13034;SDS011;6584;48.022;11.810;2023-03-01T02:26:48;20.92;;;15.48;;
13034;SDS011;6584;48.022;11.810;2023-03-01T02:29:16;22.02;;;15.02;;
13034;SDS011;6584;48.022;11.810;2023-03-01T02:31:42;21.27;;;16.10;;
13034;SDS011;6584;48.022;11.810;2023-03-01T02:34:12;21.10;;;15.80;;
13034;SDS011;6584;48.022;11.810;2023-03-01T02:36:41;20.70;;;15.07;;
13034;SDS011;6584;48.022;11.810;2023-03-01T02:39:11;22.10;;;15.68;;
13034;SDS011;6584;48.022;11.810;2023-03-01T02:41:45;20.05;;;15.88;;
13034;SDS011;6584;48.022;11.810;2023-03-01T02:44:14;22.13;;;15.68;;
13034;SDS011;6584;48.022;11.810;2023-03-01T02:46:44;20.27;;;15.48;;
13034;SDS011;6584;48.022;11.810;2023-03-01T02:49:17;19.58;;;15.60;;
13034;SDS011;6584;48.022;11.810;2023-03-01T02:52:04;18.17;;;14.35;;
13034;SDS011;6584;48.022;11.810;2023-03-01T02:54:58;20.67;;;14.65;;
13034;SDS011;6584;48.022;11.810;2023-03-01T02:57:32;23.10;;;15.73;;
13034;SDS011;6584;48.022;11.810;2023-03-01T03:00:02;22.83;;;15.50;;
13034;SDS011;6584;48.022;11.810;2023-03-01T03:02:33;19.40;;;15.32;;
13034;SDS011;6584;48.022;11.810;2023-03-01T03:05:04;21.50;;;15.05;;
13034;SDS011;6584;48.022;11.810;2023-03-01T03:07:33;21.05;;;15.63;;
13034;SDS011;6584;48.022;11.810;2023-03-01T03:10:04;21.15;;;15.70;;
13034;SDS011;6584;48.022;11.810;2023-03-01T03:12:31;19.83;;;14.68;;
13034;SDS011;6584;48.022;11.810;2023-03-01T03:14:57;21.52;;;14.98;;
13034;SDS011;6584;48.022;11.810;2023-03-01T03:17:23;21.83;;;15.40;;
13034;SDS011;6584;48.022;11.810;2023-03-01T03:19:48;19.10;;;14.70;;
13034;SDS011;6584;48.022;11.810;2023-03-01T03:22:14;23.00;;;16.27;;
13034;SDS011;6584;48.022;11.810;2023-03-01T03:24:40;22.80;;;16.27;;
13034;SDS011;6584;48.022;11.810;2023-03-01T03:27:05;19.60;;;15.48;;
13034;SDS011;6584;48.022;11.810;2023-03-01T03:29:32;20.00;;;15.38;;
13034;SDS011;6584;48.022;11.810;2023-03-01T03:31:58;21.50;;;15.98;;
13034;SDS011;6584;48.022;11.810;2023-03-01T03:34:23;20.05;;;14.93;;
13034;SDS011;6584;48.022;11.810;2023-03-01T03:36:55;20.30;;;16.23;;
13034;SDS011;6584;48.022;11.810;2023-03-01T03:39:24;22.08;;;15.40;;
13034;SDS011;6584;48.022;11.810;2023-03-01T03:41:51;19.85;;;14.77;;
13034;SDS011;6584;48.022;11.810;2023-03-01T03:44:18;22.88;;;16.48;;
13034;SDS011;6584;48.022;11.810;2023-03-01T03:46:43;21.27;;;15.27;;
13034;SDS011;6584;48.022;11.810;2023-03-01T03:49:09;19.90;;;15.50;;
13034;SDS011;6584;48.022;11.810;2023-03-01T03:51:34;20.80;;;15.70;;
13034;SDS011;6584;48.022;11.810;2023-03-01T03:54:00;22.33;;;16.13;;
13034;SDS011;6584;48.022;11.810;2023-03-01T03:56:25;21.60;;;16.00;;
13034;SDS011;6584;48.022;11.810;2023-03-01T03:58:51;24.23;;;16.55;;
13034;SDS011;6584;48.022;11.810;2023-03-01T04:01:17;21.33;;;15.98;;
13034;SDS011;6584;48.022;11.810;2023-03-01T04:03:43;21.52;;;16.05;;
13034;SDS011;6584;48.022;11.810;2023-03-01T04:06:11;23.52;;;16.17;;
13034;SDS011;6584;48.022;11.810;2023-03-01T04:08:38;20.80;;;15.82;;
13034;SDS011;6584;48.022;11.810;2023-03-01T04:11:04;22.42;;;15.95;;
13034;SDS011;6584;48.022;11.810;2023-03-01T04:13:49;23.10;;;16.08;;
13034;SDS011;6584;48.022;11.810;2023-03-01T04:16:15;24.45;;;16.88;;
13034;SDS011;6584;48.022;11.810;2023-03-01T04:18:41;21.08;;;16.50;;
13034;SDS011;6584;48.022;11.810;2023-03-01T04:21:07;20.40;;;15.32;;
13034;SDS011;6584;48.022;11.810;2023-03-01T04:23:32;20.85;;;16.55;;
13034;SDS011;6584;48.022;11.810;2023-03-01T04:25:58;20.48;;;15.38;;
13034;SDS011;6584;48.022;11.810;2023-03-01T04:28:25;23.58;;;15.68;;
13034;SDS011;6584;48.022;11.810;2023-03-01T04:31:03;20.42;;;15.48;;
13034;SDS011;6584;48.022;11.810;2023-03-01T04:33:42;22.50;;;16.65;;
13034;SDS011;6584;48.022;11.810;2023-03-01T04:36:10;21.75;;;15.95;;
13034;SDS011;6584;48.022;11.810;2023-03-01T04:38:37;22.77;;;16.25;;
13034;SDS011;6584;48.022;11.810;2023-03-01T04:41:05;22.95;;;16.58;;
13034;SDS011;6584;48.022;11.810;2023-03-01T04:43:32;22.23;;;16.67;;
13034;SDS011;6584;48.022;11.810;2023-03-01T04:46:02;21.95;;;16.42;;
13034;SDS011;6584;48.022;11.810;2023-03-01T04:48:31;22.35;;;16.85;;
13034;SDS011;6584;48.022;11.810;2023-03-01T04:50:58;21.23;;;16.55;;
13034;SDS011;6584;48.022;11.810;2023-03-01T04:53:24;22.23;;;16.88;;
13034;SDS011;6584;48.022;11.810;2023-03-01T04:55:50;22.00;;;15.80;;
13034;SDS011;6584;48.022;11.810;2023-03-01T04:58:16;21.77;;;16.27;;
13034;SDS011;6584;48.022;11.810;2023-03-01T05:00:41;23.50;;;15.60;;
13034;SDS011;6584;48.022;11.810;2023-03-01T05:03:07;22.83;;;17.63;;
13034;SDS011;6584;48.022;11.810;2023-03-01T05:05:34;25.05;;;17.88;;
13034;SDS011;6584;48.022;11.810;2023-03-01T05:08:05;32.80;;;22.20;;
13034;SDS011;6584;48.022;11.810;2023-03-01T05:10:32;48.72;;;32.70;;
13034;SDS011;6584;48.022;11.810;2023-03-01T05:13:00;26.35;;;17.98;;
13034;SDS011;6584;48.022;11.810;2023-03-01T05:15:28;22.48;;;16.40;;
13034;SDS011;6584;48.022;11.810;2023-03-01T05:17:56;23.33;;;17.33;;
13034;SDS011;6584;48.022;11.810;2023-03-01T05:20:29;26.33;;;17.42;;
13034;SDS011;6584;48.022;11.810;2023-03-01T05:22:56;25.20;;;17.75;;
13034;SDS011;6584;48.022;11.810;2023-03-01T05:25:23;23.20;;;16.80;;
13034;SDS011;6584;48.022;11.810;2023-03-01T05:27:49;22.25;;;17.30;;
13034;SDS011;6584;48.022;11.810;2023-03-01T05:30:15;27.80;;;17.13;;
13034;SDS011;6584;48.022;11.810;2023-03-01T05:32:43;26.58;;;16.98;;
13034;SDS011;6584;48.022;11.810;2023-03-01T05:35:11;26.30;;;16.23;;
13034;SDS011;6584;48.022;11.810;2023-03-01T05:37:43;21.98;;;16.02;;
13034;SDS011;6584;48.022;11.810;2023-03-01T05:40:14;24.63;;;17.02;;
13034;SDS011;6584;48.022;11.810;2023-03-01T05:42:43;23.02;;;16.70;;
13034;SDS011;6584;48.022;11.810;2023-03-01T05:45:19;22.05;;;16.73;;
13034;SDS011;6584;48.022;11.810;2023-03-01T05:47:46;22.90;;;16.90;;
13034;SDS011;6584;48.022;11.810;2023-03-01T05:50:17;25.80;;;17.17;;
13034;SDS011;6584;48.022;11.810;2023-03-01T05:52:48;25.30;;;17.40;;
13034;SDS011;6584;48.022;11.810;2023-03-01T05:55:16;24.40;;;16.63;;
13034;SDS011;6584;48.022;11.810;2023-03-01T05:57:42;24.13;;;17.75;;
13034;SDS011;6584;48.022;11.810;2023-03-01T06:00:08;22.23;;;16.70;;
13034;SDS011;6584;48.022;11.810;2023-03-01T06:02:35;22.10;;;16.30;;
13034;SDS011;6584;48.022;11.810;2023-03-01T06:05:00;25.17;;;16.05;;
13034;SDS011;6584;48.022;11.810;2023-03-01T06:07:27;23.77;;;17.73;;
13034;SDS011;6584;48.022;11.810;2023-03-01T06:09:53;24.17;;;17.42;;
13034;SDS011;6584;48.022;11.810;2023-03-01T06:12:18;20.67;;;16.27;;
13034;SDS011;6584;48.022;11.810;2023-03-01T06:14:44;24.70;;;17.42;;
13034;SDS011;6584;48.022;11.810;2023-03-01T06:17:11;22.90;;;16.77;;
13034;SDS011;6584;48.022;11.810;2023-03-01T06:19:37;23.77;;;17.25;;
13034;SDS011;6584;48.022;11.810;2023-03-01T06:22:02;24.83;;;17.25;;
13034;SDS011;6584;48.022;11.810;2023-03-01T06:24:28;25.20;;;18.15;;
13034;SDS011;6584;48.022;11.810;2023-03-01T06:26:54;25.10;;;16.75;;
13034;SDS011;6584;48.022;11.810;2023-03-01T06:29:20;26.40;;;17.92;;
13034;SDS011;6584;48.022;11.810;2023-03-01T06:31:47;24.48;;;17.02;;
13034;SDS011;6584;48.022;11.810;2023-03-01T06:34:13;24.98;;;18.42;;
13034;SDS011;6584;48.022;11.810;2023-03-01T06:36:39;25.55;;;17.90;;
13034;SDS011;6584;48.022;11.810;2023-03-01T06:39:05;25.92;;;17.75;;
13034;SDS011;6584;48.022;11.810;2023-03-01T06:41:31;25.30;;;18.17;;
13034;SDS011;6584;48.022;11.810;2023-03-01T06:43:57;22.85;;;17.17;;
13034;SDS011;6584;48.022;11.810;2023-03-01T06:46:23;28.02;;;19.63;;
13034;SDS011;6584;48.022;11.810;2023-03-01T06:48:49;25.92;;;17.95;;
13034;SDS011;6584;48.022;11.810;2023-03-01T06:51:15;23.20;;;17.85;;
13034;SDS011;6584;48.022;11.810;2023-03-01T06:53:40;24.10;;;17.08;;
13034;SDS011;6584;48.022;11.810;2023-03-01T06:56:06;22.88;;;17.70;;
13034;SDS011;6584;48.022;11.810;2023-03-01T06:58:31;23.50;;;16.98;;
13034;SDS011;6584;48.022;11.810;2023-03-01T07:00:57;23.95;;;17.70;;
13034;SDS011;6584;48.022;11.810;2023-03-01T07:03:23;26.38;;;16.75;;
13034;SDS011;6584;48.022;11.810;2023-03-01T07:05:49;28.50;;;17.75;;
13034;SDS011;6584;48.022;11.810;2023-03-01T07:08:17;26.42;;;18.88;;
13034;SDS011;6584;48.022;11.810;2023-03-01T07:10:43;28.23;;;17.33;;
13034;SDS011;6584;48.022;11.810;2023-03-01T07:13:08;28.00;;;17.52;;
13034;SDS011;6584;48.022;11.810;2023-03-01T07:15:34;24.73;;;16.95;;
13034;SDS011;6584;48.022;11.810;2023-03-01T07:17:59;25.63;;;17.85;;
13034;SDS011;6584;48.022;11.810;2023-03-01T07:20:25;24.88;;;17.95;;
13034;SDS011;6584;48.022;11.810;2023-03-01T07:22:51;28.20;;;17.17;;
13034;SDS011;6584;48.022;11.810;2023-03-01T07:25:17;26.63;;;17.83;;
13034;SDS011;6584;48.022;11.810;2023-03-01T07:27:43;27.77;;;18.35;;
13034;SDS011;6584;48.022;11.810;2023-03-01T07:30:08;24.10;;;16.42;;
13034;SDS011;6584;48.022;11.810;2023-03-01T07:32:35;23.30;;;16.98;;
13034;SDS011;6584;48.022;11.810;2023-03-01T07:35:00;26.25;;;18.52;;
13034;SDS011;6584;48.022;11.810;2023-03-01T07:37:26;25.98;;;18.95;;
13034;SDS011;6584;48.022;11.810;2023-03-01T07:39:52;23.40;;;17.15;;
13034;SDS011;6584;48.022;11.810;2023-03-01T07:42:17;29.15;;;19.02;;
13034;SDS011;6584;48.022;11.810;2023-03-01T07:44:43;25.88;;;18.50;;
13034;SDS011;6584;48.022;11.810;2023-03-01T07:47:08;26.75;;;17.98;;
13034;SDS011;6584;48.022;11.810;2023-03-01T07:49:34;26.90;;;18.23;;
13034;SDS011;6584;48.022;11.810;2023-03-01T07:51:59;27.63;;;18.60;;
13034;SDS011;6584;48.022;11.810;2023-03-01T07:54:25;23.58;;;16.83;;
13034;SDS011;6584;48.022;11.810;2023-03-01T07:56:51;24.15;;;17.55;;
13034;SDS011;6584;48.022;11.810;2023-03-01T07:59:17;23.60;;;17.02;;
13034;SDS011;6584;48.022;11.810;2023-03-01T08:01:42;30.00;;;18.30;;
13034;SDS011;6584;48.022;11.810;2023-03-01T08:04:08;28.33;;;18.83;;
13034;SDS011;6584;48.022;11.810;2023-03-01T08:06:37;27.10;;;17.77;;
13034;SDS011;6584;48.022;11.810;2023-03-01T08:09:02;24.55;;;17.48;;
13034;SDS011;6584;48.022;11.810;2023-03-01T08:11:28;28.00;;;17.75;;
13034;SDS011;6584;48.022;11.810;2023-03-01T08:13:54;27.80;;;17.45;;
13034;SDS011;6584;48.022;11.810;2023-03-01T08:16:19;23.10;;;17.65;;
13034;SDS011;6584;48.022;11.810;2023-03-01T08:18:45;26.35;;;18.48;;
13034;SDS011;6584;48.022;11.810;2023-03-01T08:21:12;29.63;;;18.25;;
13034;SDS011;6584;48.022;11.810;2023-03-01T08:23:39;24.58;;;17.63;;
13034;SDS011;6584;48.022;11.810;2023-03-01T08:26:07;26.25;;;17.65;;
13034;SDS011;6584;48.022;11.810;2023-03-01T08:28:35;33.00;;;20.38;;
13034;SDS011;6584;48.022;11.810;2023-03-01T08:31:01;24.83;;;18.02;;
13034;SDS011;6584;48.022;11.810;2023-03-01T08:33:26;25.60;;;17.17;;
13034;SDS011;6584;48.022;11.810;2023-03-01T08:35:52;23.27;;;17.75;;
13034;SDS011;6584;48.022;11.810;2023-03-01T08:38:17;29.05;;;18.67;;
13034;SDS011;6584;48.022;11.810;2023-03-01T08:40:43;25.17;;;18.67;;
13034;SDS011;6584;48.022;11.810;2023-03-01T08:43:08;25.10;;;18.13;;
13034;SDS011;6584;48.022;11.810;2023-03-01T08:45:34;24.50;;;17.80;;
13034;SDS011;6584;48.022;11.810;2023-03-01T08:48:01;24.20;;;16.92;;
13034;SDS011;6584;48.022;11.810;2023-03-01T08:50:27;25.25;;;17.15;;
13034;SDS011;6584;48.022;11.810;2023-03-01T08:52:52;25.48;;;17.08;;
13034;SDS011;6584;48.022;11.810;2023-03-01T08:55:18;26.33;;;18.35;;
13034;SDS011;6584;48.022;11.810;2023-03-01T08:57:43;24.90;;;17.48;;
13034;SDS011;6584;48.022;11.810;2023-03-01T09:00:09;28.00;;;19.75;;
13034;SDS011;6584;48.022;11.810;2023-03-01T09:02:39;29.88;;;16.90;;
13034;SDS011;6584;48.022;11.810;2023-03-01T09:05:05;26.23;;;18.90;;
13034;SDS011;6584;48.022;11.810;2023-03-01T09:07:31;25.48;;;17.98;;
13034;SDS011;6584;48.022;11.810;2023-03-01T09:09:56;27.40;;;18.10;;
13034;SDS011;6584;48.022;11.810;2023-03-01T09:12:22;27.80;;;18.77;;
13034;SDS011;6584;48.022;11.810;2023-03-01T09:14:49;30.17;;;20.63;;
13034;SDS011;6584;48.022;11.810;2023-03-01T09:17:15;26.52;;;19.25;;
13034;SDS011;6584;48.022;11.810;2023-03-01T09:19:41;24.80;;;19.95;;
13034;SDS011;6584;48.022;11.810;2023-03-01T09:22:06;33.28;;;22.35;;
13034;SDS011;6584;48.022;11.810;2023-03-01T09:24:32;25.65;;;18.98;;
13034;SDS011;6584;48.022;11.810;2023-03-01T09:26:57;53.83;;;34.00;;
13034;SDS011;6584;48.022;11.810;2023-03-01T09:29:23;35.42;;;23.85;;
13034;SDS011;6584;48.022;11.810;2023-03-01T09:31:48;32.28;;;21.30;;
13034;SDS011;6584;48.022;11.810;2023-03-01T09:34:14;30.88;;;20.08;;
13034;SDS011;6584;48.022;11.810;2023-03-01T09:36:47;26.48;;;18.67;;
13034;SDS011;6584;48.022;11.810;2023-03-01T09:39:13;26.50;;;19.05;;
13034;SDS011;6584;48.022;11.810;2023-03-01T09:41:43;27.88;;;20.20;;
13034;SDS011;6584;48.022;11.810;2023-03-01T09:46:48;29.77;;;20.50;;
13034;SDS011;6584;48.022;11.810;2023-03-01T09:49:17;25.85;;;19.35;;
13034;SDS011;6584;48.022;11.810;2023-03-01T09:51:56;27.55;;;19.38;;
13034;SDS011;6584;48.022;11.810;2023-03-01T09:54:32;28.15;;;18.52;;
13034;SDS011;6584;48.022;11.810;2023-03-01T09:57:17;28.27;;;19.13;;
13034;SDS011;6584;48.022;11.810;2023-03-01T10:05:00;28.17;;;19.30;;
13034;SDS011;6584;48.022;11.810;2023-03-01T10:10:32;30.15;;;19.83;;
13034;SDS011;6584;48.022;11.810;2023-03-01T10:12:59;27.40;;;18.60;;
13034;SDS011;6584;48.022;11.810;2023-03-01T10:15:34;44.80;;;18.95;;
13034;SDS011;6584;48.022;11.810;2023-03-01T10:18:10;33.03;;;19.90;;
13034;SDS011;6584;48.022;11.810;2023-03-01T10:20:43;28.20;;;19.38;;
13034;SDS011;6584;48.022;11.810;2023-03-01T10:23:23;27.75;;;18.77;;
13034;SDS011;6584;48.022;11.810;2023-03-01T10:29:02;29.65;;;18.88;;
13034;SDS011;6584;48.022;11.810;2023-03-01T10:31:48;32.42;;;19.48;;
13034;SDS011;6584;48.022;11.810;2023-03-01T10:34:17;30.48;;;20.20;;
13034;SDS011;6584;48.022;11.810;2023-03-01T10:36:47;29.77;;;18.48;;
13034;SDS011;6584;48.022;11.810;2023-03-01T10:39:17;25.55;;;18.38;;
13034;SDS011;6584;48.022;11.810;2023-03-01T10:41:51;29.02;;;18.40;;
13034;SDS011;6584;48.022;11.810;2023-03-01T10:44:36;26.63;;;18.67;;
13034;SDS011;6584;48.022;11.810;2023-03-01T10:47:04;29.02;;;19.35;;
13034;SDS011;6584;48.022;11.810;2023-03-01T10:49:36;31.23;;;20.42;;
13034;SDS011;6584;48.022;11.810;2023-03-01T10:52:11;27.75;;;19.38;;
13034;SDS011;6584;48.022;11.810;2023-03-01T10:54:56;32.13;;;21.13;;
13034;SDS011;6584;48.022;11.810;2023-03-01T10:57:42;26.92;;;18.05;;
13034;SDS011;6584;48.022;11.810;2023-03-01T11:00:15;24.92;;;17.23;;
13034;SDS011;6584;48.022;11.810;2023-03-01T11:02:43;34.55;;;18.70;;
13034;SDS011;6584;48.022;11.810;2023-03-01T11:05:19;29.02;;;19.05;;
13034;SDS011;6584;48.022;11.810;2023-03-01T11:07:50;36.50;;;24.10;;
13034;SDS011;6584;48.022;11.810;2023-03-01T11:10:19;24.08;;;18.17;;
13034;SDS011;6584;48.022;11.810;2023-03-01T11:12:50;23.27;;;17.23;;
13034;SDS011;6584;48.022;11.810;2023-03-01T11:15:26;26.05;;;18.50;;
13034;SDS011;6584;48.022;11.810;2023-03-01T11:17:53;21.70;;;16.00;;
13034;SDS011;6584;48.022;11.810;2023-03-01T11:20:25;26.30;;;17.55;;
13034;SDS011;6584;48.022;11.810;2023-03-01T11:22:54;25.15;;;18.60;;
13034;SDS011;6584;48.022;11.810;2023-03-01T11:25:26;25.23;;;18.10;;
13034;SDS011;6584;48.022;11.810;2023-03-01T11:28:00;26.23;;;18.45;;
13034;SDS011;6584;48.022;11.810;2023-03-01T11:30:31;29.98;;;20.55;;
13034;SDS011;6584;48.022;11.810;2023-03-01T11:36:10;25.42;;;18.13;;
13034;SDS011;6584;48.022;11.810;2023-03-01T11:38:48;25.65;;;19.30;;
13034;SDS011;6584;48.022;11.810;2023-03-01T11:41:16;33.45;;;23.48;;
13034;SDS011;6584;48.022;11.810;2023-03-01T11:49:10;27.83;;;19.77;;
13034;SDS011;6584;48.022;11.810;2023-03-01T12:10:54;25.40;;;19.00;;
13034;SDS011;6584;48.022;11.810;2023-03-01T12:16:34;27.05;;;19.75;;
13034;SDS011;6584;48.022;11.810;2023-03-01T12:24:43;28.63;;;19.27;;
13034;SDS011;6584;48.022;11.810;2023-03-01T12:33:01;33.00;;;21.70;;
13034;SDS011;6584;48.022;11.810;2023-03-01T12:38:50;26.33;;;20.42;;
13034;SDS011;6584;48.022;11.810;2023-03-01T12:50:21;29.02;;;20.20;;
13034;SDS011;6584;48.022;11.810;2023-03-01T12:52:57;28.70;;;19.27;;
13034;SDS011;6584;48.022;11.810;2023-03-01T13:03:23;33.20;;;21.52;;
13034;SDS011;6584;48.022;11.810;2023-03-01T13:11:28;27.92;;;20.63;;
13034;SDS011;6584;48.022;11.810;2023-03-01T13:16:53;30.60;;;19.17;;
13034;SDS011;6584;48.022;11.810;2023-03-01T13:19:21;28.60;;;19.52;;
13034;SDS011;6584;48.022;11.810;2023-03-01T13:21:49;41.42;;;22.38;;
13034;SDS011;6584;48.022;11.810;2023-03-01T13:29:45;27.23;;;21.00;;
13034;SDS011;6584;48.022;11.810;2023-03-01T13:32:26;28.80;;;20.25;;
13034;SDS011;6584;48.022;11.810;2023-03-01T13:35:00;26.75;;;20.05;;
13034;SDS011;6584;48.022;11.810;2023-03-01T13:37:35;29.52;;;22.05;;
13034;SDS011;6584;48.022;11.810;2023-03-01T13:42:48;27.83;;;20.10;;
13034;SDS011;6584;48.022;11.810;2023-03-01T13:45:20;31.50;;;19.75;;
13034;SDS011;6584;48.022;11.810;2023-03-01T13:47:58;25.98;;;20.27;;
13034;SDS011;6584;48.022;11.810;2023-03-01T13:50:32;30.55;;;22.02;;
13034;SDS011;6584;48.022;11.810;2023-03-01T13:53:03;31.75;;;21.40;;
13034;SDS011;6584;48.022;11.810;2023-03-01T13:58:26;30.80;;;21.50;;
13034;SDS011;6584;48.022;11.810;2023-03-01T14:01:07;27.48;;;20.55;;
13034;SDS011;6584;48.022;11.810;2023-03-01T14:03:45;28.20;;;19.98;;
13034;SDS011;6584;48.022;11.810;2023-03-01T14:06:14;26.45;;;20.60;;
13034;SDS011;6584;48.022;11.810;2023-03-01T14:08:43;30.05;;;21.10;;
13034;SDS011;6584;48.022;11.810;2023-03-01T14:14:02;27.00;;;21.00;;
13034;SDS011;6584;48.022;11.810;2023-03-01T14:17:00;27.10;;;20.90;;
13034;SDS011;6584;48.022;11.810;2023-03-01T14:19:54;28.08;;;22.20;;
13034;SDS011;6584;48.022;11.810;2023-03-01T14:22:28;27.63;;;21.92;;
13034;SDS011;6584;48.022;11.810;2023-03-01T14:25:04;32.53;;;21.40;;
13034;SDS011;6584;48.022;11.810;2023-03-01T14:27:41;29.52;;;21.55;;
13034;SDS011;6584;48.022;11.810;2023-03-01T14:32:48;28.63;;;22.23;;
13034;SDS011;6584;48.022;11.810;2023-03-01T14:35:26;31.27;;;22.17;;
13034;SDS011;6584;48.022;11.810;2023-03-01T14:37:53;30.25;;;21.50;;
13034;SDS011;6584;48.022;11.810;2023-03-01T14:40:24;30.65;;;23.92;;
13034;SDS011;6584;48.022;11.810;2023-03-01T14:42:49;41.17;;;27.38;;
13034;SDS011;6584;48.022;11.810;2023-03-01T14:45:16;27.70;;;23.00;;
13034;SDS011;6584;48.022;11.810;2023-03-01T14:47:43;43.03;;;28.40;;
13034;SDS011;6584;48.022;11.810;2023-03-01T14:50:15;35.30;;;25.77;;
13034;SDS011;6584;48.022;11.810;2023-03-01T14:52:50;29.25;;;22.92;;
13034;SDS011;6584;48.022;11.810;2023-03-01T14:55:23;30.40;;;22.52;;
13034;SDS011;6584;48.022;11.810;2023-03-01T14:57:52;28.40;;;21.33;;
13034;SDS011;6584;48.022;11.810;2023-03-01T15:00:20;29.42;;;23.55;;
13034;SDS011;6584;48.022;11.810;2023-03-01T15:02:48;29.00;;;22.70;;
13034;SDS011;6584;48.022;11.810;2023-03-01T15:05:16;27.42;;;21.45;;
13034;SDS011;6584;48.022;11.810;2023-03-01T15:07:47;30.27;;;23.35;;
13034;SDS011;6584;48.022;11.810;2023-03-01T15:12:49;27.50;;;21.20;;
13034;SDS011;6584;48.022;11.810;2023-03-01T15:18:05;27.65;;;21.70;;
13034;SDS011;6584;48.022;11.810;2023-03-01T15:20:43;29.42;;;21.60;;
13034;SDS011;6584;48.022;11.810;2023-03-01T15:23:28;27.13;;;21.80;;
13034;SDS011;6584;48.022;11.810;2023-03-01T15:25:55;26.13;;;20.58;;
13034;SDS011;6584;48.022;11.810;2023-03-01T15:28:23;27.38;;;21.20;;
13034;SDS011;6584;48.022;11.810;2023-03-01T15:31:36;30.15;;;22.85;;
13034;SDS011;6584;48.022;11.810;2023-03-01T15:33:37;26.23;;;21.73;;
13034;SDS011;6584;48.022;11.810;2023-03-01T15:36:29;28.55;;;21.25;;
13034;SDS011;6584;48.022;11.810;2023-03-01T15:39:03;28.38;;;20.52;;
13034;SDS011;6584;48.022;11.810;2023-03-01T15:41:37;30.80;;;22.13;;
13034;SDS011;6584;48.022;11.810;2023-03-01T15:44:15;29.83;;;22.48;;
13034;SDS011;6584;48.022;11.810;2023-03-01T15:46:45;27.35;;;22.00;;
13034;SDS011;6584;48.022;11.810;2023-03-01T15:51:53;27.58;;;22.13;;
13034;SDS011;6584;48.022;11.810;2023-03-01T15:54:20;27.80;;;21.70;;
13034;SDS011;6584;48.022;11.810;2023-03-01T15:56:48;30.00;;;22.83;;
13034;SDS011;6584;48.022;11.810;2023-03-01T15:59:14;29.13;;;21.63;;
13034;SDS011;6584;48.022;11.810;2023-03-01T16:01:42;28.15;;;22.35;;
13034;SDS011;6584;48.022;11.810;2023-03-01T16:04:09;28.60;;;22.13;;
13034;SDS011;6584;48.022;11.810;2023-03-01T16:06:38;26.92;;;21.58;;
13034;SDS011;6584;48.022;11.810;2023-03-01T16:09:04;31.70;;;23.88;;
13034;SDS011;6584;48.022;11.810;2023-03-01T16:11:29;29.38;;;22.95;;
13034;SDS011;6584;48.022;11.810;2023-03-01T16:13:57;28.30;;;22.58;;
13034;SDS011;6584;48.022;11.810;2023-03-01T16:16:22;30.77;;;23.75;;
13034;SDS011;6584;48.022;11.810;2023-03-01T16:18:48;29.50;;;23.23;;
13034;SDS011;6584;48.022;11.810;2023-03-01T16:21:15;28.17;;;22.52;;
13034;SDS011;6584;48.022;11.810;2023-03-01T16:23:44;27.90;;;21.50;;